Gordonville, MO (63752)

9:57 PM CST on December 22, 2014 (GMT -0600)
Jackson, MO - Goose Creek at Old Cape Rd. | Change Station
CLOSE
Current Station
Personal Weather Station
Location: Jackson, MO
Elevation: 535 ft
Nearby Weather Stations

Elev 535 ft 37.38 °N, 89.66 °W | Updated 7 minutes ago

Overcast
Overcast
52.0 °F
Feels Like 52.0 °F
N
7.8
Wind Variable Wind from South

Today
High -- | Low -- °F
--% Chance of Precip.
Yesterday
High -- | Low -- °F
Precip. -- in
7:09 AM 4:45 PM
New Moon, 2% visible
Pressure 29.60 in
Visibility 10.0 miles
Clouds Overcast 600 ft
Dew Point 52 °F
Humidity 99%
Rainfall 0.60 in
Snow Depth Not available.
UV 0 out of 12
Pollen 3.90 out of 12
Air Quality Not available.
Flu Activity Not available.
METAR KCGI 230353Z 19009KT 10SM OVC006 12/11 A2960 RMK AO2 RAE0255 SLP024 P0000 T01170111

More Conditions Fewer Conditions

Pressure 29.60 in
Visibility 10.0 miles
Clouds Overcast 600 ft
Dew Point 52 °F
Humidity 99%
Rainfall 0.60 in
Snow Depth Not available.
UV 0 out of 12
Pollen 3.90 out of 12
Air Quality Not available.
Flu Activity Not available.
METAR KCGI 230353Z 19009KT 10SM OVC006 12/11 A2960 RMK AO2 RAE0255 SLP024 P0000 T01170111

More Conditions Fewer Conditions

10-Day Weather Forecast

Almanac

Astronomy

Dec. 22, 2014 Rise Set
Actual Time
Civil Twilight
Nautical Twilight
Astronomical Twilight
Moon
Length of Visible Light
Length of Day
Tomorrow will be .
, % of the Moon is Illuminated

Today's Extremes

State Highs State Lows

Community

WunderPhotos

Upload Photos

1,779,764 photos uploaded!

WunderBlogs® & News

Nearby

Air Quality

  Air Quality AQ Index Pollutant
Not available.

Snow Depth

Station Depth Elevation

Earthquake Activity

City Distance Mag. Time & Date
Minimum magnitude displayed is 2.5.

Coastal Water Temperatures

Place Temperature

Nearby Weather Stations